Time;durP1;ratioP1;P1;durP2;ratioP2;P2;SDS_P1;SDS_P2;PMS_P1;PMS_P2;Temp;Humidity;BMP_temperature;BMP_pressure;BME280_temperature;BME280_humidity;BME280_pressure;Samples;Min_cycle;Max_cycle;Signal;HPM_P1;HPM_P2
2022/06/18 00:02:11;;;;;;;74.82;71.25;;;;;;;31.66;31.25;101665.00;4977028;28;20062;-73
2022/06/18 00:04:37;;;;;;;75.95;72.22;;;;;;;31.62;31.22;101658.53;4977714;28;20367;-71
2022/06/18 00:07:08;;;;;;;73.18;69.38;;;;;;;31.60;31.38;101655.28;4977778;28;20063;-72
2022/06/18 00:09:36;;;;;;;76.95;73.25;;;;;;;31.55;31.35;101649.97;4976990;28;20038;-69
2022/06/18 00:15:25;;;;;;;74.18;70.68;;;;;;;31.48;31.38;101651.44;4977528;28;20105;-71
2022/06/18 00:17:52;;;;;;;74.47;70.97;;;;;;;31.44;31.50;101644.97;4976871;28;20031;-72
2022/06/18 00:20:20;;;;;;;76.32;72.63;;;;;;;31.42;31.35;101643.72;4976784;28;20501;-72
2022/06/18 00:22:50;;;;;;;;;;;;;;;31.38;31.67;101645.59;4977046;28;20082;-72
2022/06/18 00:25:26;;;;;;;75.15;71.55;;;;;;;31.34;31.50;101639.91;4976752;28;19917;-73
2022/06/18 00:27:52;;;;;;;74.55;70.95;;;;;;;31.30;31.89;101647.41;4975959;28;20045;-72
2022/06/18 00:30:22;;;;;;;75.30;71.60;;;;;;;31.29;31.64;101644.97;4976579;28;20113;-72
2022/06/18 00:32:48;;;;;;;75.88;72.38;;;;;;;31.25;31.52;101648.50;4976583;28;20484;-72
2022/06/18 00:35:15;;;;;;;74.18;70.78;;;;;;;31.22;31.87;101643.66;4976583;28;20042;-71
2022/06/18 00:37:41;;;;;;;72.50;68.95;;;;;;;31.19;31.41;101649.94;4976675;28;20023;-72
2022/06/18 00:40:19;;;;;;;71.13;67.63;;;;;;;31.17;31.60;101643.94;4976519;28;20039;-72
2022/06/18 00:42:45;;;;;;;74.45;70.75;;;;;;;31.13;31.61;101645.81;4976309;28;20058;-72
2022/06/18 00:45:20;;;;;;;72.72;69.20;;;;;;;31.11;31.79;101644.56;4976414;28;20069;-73
2022/06/18 00:48:01;;;;;;;75.18;71.68;;;;;;;31.09;31.75;101644.09;4976089;28;20472;-71
2022/06/18 00:50:32;;;;;;;71.45;68.05;;;;;;;31.04;31.99;101643.19;4976305;28;20034;-72
2022/06/18 00:53:04;;;;;;;71.20;67.80;;;;;;;31.02;31.87;101644.72;4976875;28;20053;-73
2022/06/18 00:55:40;;;;;;;72.25;68.50;;;;;;;30.98;31.73;101643.84;4976239;28;20530;-73
2022/06/18 00:58:12;;;;;;;75.28;71.32;;;;;;;30.95;32.08;101637.00;4976502;28;20022;-72
2022/06/18 01:00:44;;;;;;;71.90;68.40;;;;;;;30.91;31.90;101633.31;4975941;28;20033;-73
2022/06/18 01:03:27;;;;;;;72.50;69.07;;;;;;;30.89;31.92;101635.63;4976321;28;20491;-72
2022/06/18 01:05:55;;;;;;;73.63;69.93;;;;;;;30.85;31.97;101637.56;4975888;28;20038;-73
2022/06/18 01:08:24;;;;;;;74.18;70.68;;;;;;;30.81;31.98;101634.63;4976146;28;20037;-72
2022/06/18 01:11:00;;;;;;;77.45;73.53;;;;;;;30.80;32.05;101629.41;4975571;28;20027;-72
2022/06/18 01:13:38;;;;;;;73.70;70.10;;;;;;;30.76;32.07;101631.31;4975867;28;20035;-72
2022/06/18 01:16:06;;;;;;;75.18;71.55;;;;;;;30.74;32.10;101633.63;4975869;28;20026;-73
2022/06/18 01:18:32;;;;;;;;;;;;;;;30.68;32.32;101627.53;4976738;28;20030;-72
2022/06/18 01:21:22;;;;;;;70.88;67.18;;;;;;;30.66;32.24;101629.84;4975317;28;19925;-73
2022/06/18 01:23:52;;;;;;;71.03;67.47;;;;;;;30.61;32.43;101630.13;4975448;28;20542;-73
2022/06/18 01:26:19;;;;;;;66.32;62.88;;;;;;;30.58;32.19;101625.25;4975840;28;20035;-73
2022/06/18 01:28:44;;;;;;;66.82;63.53;;;;;;;30.55;32.33;101629.56;4958636;28;20390;-73
2022/06/18 01:31:10;;;;;;;68.25;65.00;;;;;;;30.53;32.48;101623.53;4976042;28;20121;-74
2022/06/18 01:33:36;;;;;;;69.07;65.55;;;;;;;30.51;32.77;101625.06;4976013;28;20109;-73
2022/06/18 01:36:06;;;;;;;66.90;63.60;;;;;;;30.48;32.45;101621.03;4975688;28;20110;-73
2022/06/18 01:38:36;;;;;;;68.72;65.20;;;;;;;30.46;32.57;101626.13;4975707;28;20026;-73
2022/06/18 01:41:52;;;;;;;65.82;62.55;;;;;;;30.43;32.29;101621.28;4974300;28;20082;-73
2022/06/18 01:44:39;;;;;;;66.35;62.95;;;;;;;30.38;32.56;101621.53;4964339;28;20073;-74
2022/06/18 01:47:16;;;;;;;70.55;66.65;;;;;;;30.35;32.72;101617.50;4975614;28;20121;-74
2022/06/18 01:49:47;;;;;;;69.68;66.25;;;;;;;30.31;32.39;101618.56;4975308;28;20031;-74
2022/06/18 01:52:17;;;;;;;71.43;67.95;;;;;;;30.28;32.67;101616.50;4975284;28;20075;-74
2022/06/18 01:54:48;;;;;;;67.38;63.75;;;;;;;30.26;32.59;101624.41;4975257;28;20027;-72
2022/06/18 01:57:21;;;;;;;67.13;63.72;;;;;;;30.23;32.61;101619.50;4975695;28;20485;-73
2022/06/18 01:59:53;;;;;;;70.57;67.25;;;;;;;30.19;32.80;101613.84;4975331;28;20027;-74
2022/06/18 02:02:19;;;;;;;67.28;64.05;;;;;;;30.16;32.80;101620.13;4974688;28;20066;-74
2022/06/18 02:04:45;;;;;;;67.78;63.90;;;;;;;30.14;32.74;101619.69;4974467;28;20090;-70
2022/06/18 02:07:13;;;;;;;70.15;66.43;;;;;;;30.11;32.85;101617.59;4975007;28;20044;-74
2022/06/18 02:09:48;;;;;;;65.53;62.38;;;;;;;30.08;33.00;101613.53;4975078;28;20035;-74
2022/06/18 02:12:21;;;;;;;67.82;64.63;;;;;;;30.05;33.12;101614.25;4974971;28;20030;-73
2022/06/18 02:14:51;;;;;;;67.60;64.20;;;;;;;30.01;33.04;101606.94;4974820;28;20035;-72
2022/06/18 02:17:18;;;;;;;66.75;63.08;;;;;;;29.98;33.10;101609.28;4974779;28;20027;-72
2022/06/18 02:19:48;;;;;;;68.05;64.55;;;;;;;29.95;33.31;101612.78;4974745;28;20042;-73
2022/06/18 02:22:15;;;;;;;66.15;62.78;;;;;;;29.93;32.96;101615.09;4975147;28;20074;-72
2022/06/18 02:24:40;;;;;;;68.00;64.75;;;;;;;29.89;33.18;101611.41;4974684;28;20034;-73
2022/06/18 02:27:11;;;;;;;68.10;64.35;;;;;;;29.87;32.89;101613.75;4974305;28;20143;-73
2022/06/18 02:29:36;;;;;;;70.85;67.22;;;;;;;29.85;33.06;101604.13;4975445;28;20031;-73
2022/06/18 02:32:06;;;;;;;68.22;64.72;;;;;;;29.82;33.41;101610.41;4974557;28;20446;-73
2022/06/18 02:34:31;;;;;;;69.57;66.28;;;;;;;29.79;33.33;101608.31;4974176;28;20069;-72
2022/06/18 02:37:00;;;;;;;67.60;64.30;;;;;;;29.76;33.58;101604.25;4974594;28;20080;-72
2022/06/18 02:39:32;;;;;;;68.00;64.70;;;;;;;29.73;33.71;101602.97;4974814;28;20027;-73
2022/06/18 02:42:08;;;;;;;65.85;62.55;;;;;;;29.70;33.33;101606.47;4974378;28;20126;-73
2022/06/18 02:44:34;;;;;;;67.25;63.85;;;;;;;29.67;33.36;101609.97;4974633;28;20043;-73
2022/06/18 02:47:05;;;;;;;66.22;62.92;;;;;;;29.65;33.29;101605.88;4974457;28;20038;-73
2022/06/18 02:49:33;;;;;;;65.40;62.05;;;;;;;29.62;33.34;101598.25;4974636;28;20363;-73
2022/06/18 02:51:59;;;;;;;67.28;63.88;;;;;;;29.58;33.36;101595.34;4976570;28;20109;-73
2022/06/18 02:54:24;;;;;;;64.95;61.60;;;;;;;29.57;33.52;101595.72;4978702;28;20066;-72
2022/06/18 02:56:50;;;;;;;66.00;62.70;;;;;;;29.53;33.14;101599.19;4978307;28;20031;-71
2022/06/18 02:59:15;;;;;;;71.20;67.63;;;;;;;29.50;33.46;101605.44;4978700;28;20123;-73
2022/06/18 03:01:40;;;;;;;64.15;60.95;;;;;;;29.48;33.56;101599.44;4978312;28;20058;-73
2022/06/18 03:04:06;;;;;;;67.10;63.60;;;;;;;29.46;33.58;101610.13;4978437;28;20031;-72
2022/06/18 03:06:33;;;;;;;64.85;61.65;;;;;;;29.44;33.38;101611.63;4978208;28;20042;-72
2022/06/18 03:08:59;;;;;;;65.07;61.60;;;;;;;29.41;33.45;101612.31;4978373;28;20081;-72
2022/06/18 03:14:14;;;;;;;64.30;61.05;;;;;;;29.32;33.41;101604.91;4977991;28;20444;-72
2022/06/18 03:16:40;;;;;;;62.35;59.28;;;;;;;29.30;33.69;101609.19;4977847;28;20038;-72
2022/06/18 03:19:06;;;;;;;69.80;66.20;;;;;;;29.28;33.46;101608.72;4977888;28;20059;-73
2022/06/18 03:21:37;;;;;;;67.45;64.10;;;;;;;29.25;33.44;101610.25;4977776;28;20364;-71
2022/06/18 03:24:04;;;;;;;66.05;62.75;;;;;;;29.23;33.72;101600.63;4977832;28;20030;-73
2022/06/18 03:26:30;;;;;;;63.58;60.38;;;;;;;29.20;33.38;101602.13;4977564;28;20038;-71
2022/06/18 03:28:55;;;;;;;66.15;62.25;;;;;;;29.18;33.81;101601.69;4977773;28;20035;-72
2022/06/18 03:31:21;;;;;;;63.88;60.55;;;;;;;29.15;33.62;101605.16;4977687;28;20031;-70
2022/06/18 03:33:47;;;;;;;65.65;61.97;;;;;;;29.13;33.52;101613.03;4976668;28;20033;-72
2022/06/18 03:36:17;;;;;;;63.00;59.90;;;;;;;29.10;33.57;101614.53;4977717;28;20058;-72
2022/06/18 03:38:43;;;;;;;66.32;62.97;;;;;;;29.08;33.57;101613.25;4977498;28;20460;-72
2022/06/18 03:41:10;;;;;;;66.82;63.22;;;;;;;29.05;33.66;101622.28;4977415;28;20062;-72
2022/06/18 03:43:35;;;;;;;64.53;61.42;;;;;;;29.01;33.89;101619.38;4977776;28;20086;-73
2022/06/18 03:46:08;;;;;;;66.78;63.03;;;;;;;28.99;33.85;101610.56;4977662;28;20039;-73
2022/06/18 03:48:54;;;;;;;68.63;64.90;;;;;;;28.97;33.80;101609.31;4961157;28;20105;-72
2022/06/18 03:51:20;;;;;;;62.30;58.90;;;;;;;28.93;34.16;101614.75;4977293;28;20034;-73
2022/06/18 03:53:46;;;;;;;64.13;60.97;;;;;;;28.91;34.00;101619.84;4977272;28;20031;-73
2022/06/18 03:56:19;;;;;;;66.15;62.67;;;;;;;28.88;34.17;101610.22;4977142;28;20033;-73
2022/06/18 03:58:45;;;;;;;61.63;58.15;;;;;;;28.85;34.13;101604.53;4976661;28;20109;-72
2022/06/18 04:01:18;;;;;;;64.57;60.70;;;;;;;28.82;33.84;101594.91;4976515;28;20372;-73
2022/06/18 04:03:43;;;;;;;64.32;60.92;;;;;;;28.80;33.98;101602.00;4976185;28;20114;-71
2022/06/18 04:06:14;;;;;;;67.88;64.50;;;;;;;28.76;33.90;101601.88;4977038;28;20062;-71
2022/06/18 04:08:40;;;;;;;62.72;59.53;;;;;;;28.74;33.99;101597.81;4977221;28;20035;-71
2022/06/18 04:11:06;;;;;;;64.57;61.17;;;;;;;28.73;34.16;101593.41;4977639;28;20045;-71
2022/06/18 04:13:31;;;;;;;61.17;57.75;;;;;;;28.69;34.02;101593.28;4976898;28;20482;-71
2022/06/18 04:15:57;;;;;;;63.97;60.33;;;;;;;28.67;33.97;101581.69;4976922;28;20051;-72
2022/06/18 04:18:22;;;;;;;65.35;61.85;;;;;;;28.65;34.26;101589.56;4960232;28;20045;-71
2022/06/18 04:20:48;;;;;;;64.32;60.47;;;;;;;28.62;34.29;101587.50;4976613;28;20478;-70
2022/06/18 04:23:15;;;;;;;67.03;63.63;;;;;;;28.59;33.93;101596.53;4976440;28;20439;-71
2022/06/18 04:25:42;;;;;;;62.78;59.47;;;;;;;28.57;34.52;101594.09;4976657;28;20037;-71
2022/06/18 04:28:13;;;;;;;63.22;59.45;;;;;;;28.54;34.40;101597.56;4976595;28;20073;-70
2022/06/18 04:30:39;;;;;;;63.75;60.63;;;;;;;28.52;34.56;101597.09;4976726;28;20038;-72
2022/06/18 04:33:05;;;;;;;60.88;57.28;;;;;;;28.50;34.14;101599.41;4976286;28;20439;-72
2022/06/18 04:35:31;;;;;;;61.08;57.40;;;;;;;28.47;34.40;101595.34;4976630;28;20034;-71
2022/06/18 04:37:57;;;;;;;61.22;57.90;;;;;;;28.45;34.23;101596.84;4976233;28;20122;-70
2022/06/18 04:40:31;;;;;;;61.28;57.67;;;;;;;28.44;34.51;101592.41;4976521;28;20034;-71
2022/06/18 04:43:08;;;;;;;61.20;57.88;;;;;;;28.41;34.45;101605.03;4976636;28;20095;-72
2022/06/18 04:45:35;;;;;;;59.53;56.42;;;;;;;28.37;34.23;101595.75;4976481;28;20041;-72
2022/06/18 04:48:01;;;;;;;61.08;57.40;;;;;;;28.36;34.63;101605.25;4976512;28;20554;-70
2022/06/18 04:50:30;;;;;;;61.38;57.92;;;;;;;28.34;34.47;101603.97;4976322;28;20105;-72
2022/06/18 04:52:55;;;;;;;60.28;56.92;;;;;;;28.32;34.28;101609.84;4976623;28;20065;-71
2022/06/18 04:55:21;;;;;;;61.50;58.00;;;;;;;28.29;34.51;101602.22;4976177;28;20070;-71
2022/06/18 04:57:47;;;;;;;58.10;54.92;;;;;;;28.27;34.38;101599.78;4976718;28;20449;-72
2022/06/18 05:00:13;;;;;;;62.95;59.75;;;;;;;28.25;34.81;101599.31;4975810;28;20031;-72
2022/06/18 05:02:38;;;;;;;59.55;56.40;;;;;;;28.23;34.88;101598.84;4976386;28;20141;-71
2022/06/18 05:05:07;;;;;;;59.90;56.70;;;;;;;28.21;34.78;101592.81;4975982;28;20448;-72
2022/06/18 05:07:33;;;;;;;60.05;56.80;;;;;;;28.19;34.79;101589.56;4976256;28;20039;-71
2022/06/18 05:09:59;;;;;;;59.58;56.08;;;;;;;28.18;34.86;101596.28;4958578;28;20458;-72
2022/06/18 05:12:24;;;;;;;62.38;58.92;;;;;;;28.16;34.58;101603.34;4975730;28;20034;-72
2022/06/18 05:14:49;;;;;;;62.50;58.80;;;;;;;28.15;34.86;101610.03;4958176;28;20125;-72
2022/06/18 05:17:21;;;;;;;63.33;59.33;;;;;;;28.13;35.02;101612.34;4975709;28;20093;-72
2022/06/18 05:19:47;;;;;;;58.67;55.30;;;;;;;28.11;35.05;101614.66;4975842;28;20034;-72
2022/06/18 05:22:13;;;;;;;63.17;59.78;;;;;;;28.09;34.57;101614.97;4975394;28;20038;-71
2022/06/18 05:24:38;;;;;;;59.67;56.58;;;;;;;28.08;34.70;101607.00;4975435;28;20039;-72
2022/06/18 05:27:04;;;;;;;60.55;57.33;;;;;;;28.08;34.61;101623.69;4975485;28;20368;-70
2022/06/18 05:29:30;;;;;;;59.33;56.00;;;;;;;28.07;34.59;101622.84;4975517;28;20031;-72
2022/06/18 05:31:55;;;;;;;57.72;54.53;;;;;;;28.06;34.97;101615.69;4975366;28;20039;-72
2022/06/18 05:34:21;;;;;;;61.67;58.42;;;;;;;28.04;34.73;101615.19;4975307;28;20046;-71
2022/06/18 05:36:47;;;;;;;62.05;58.20;;;;;;;28.03;34.73;101619.13;4975270;28;20529;-70
2022/06/18 05:39:16;;;;;;;58.58;55.33;;;;;;;28.02;34.54;101623.88;4975189;28;20031;-70
2022/06/18 05:41:41;;;;;;;59.33;56.17;;;;;;;28.02;35.06;101620.28;4975139;28;20527;-70
2022/06/18 05:44:06;;;;;;;57.47;54.30;;;;;;;28.01;34.61;101618.66;4974820;28;20146;-70
2022/06/18 05:46:32;;;;;;;61.60;58.10;;;;;;;28.00;34.62;101612.31;4975455;28;20038;-70
2022/06/18 05:48:57;;;;;;;57.55;54.55;;;;;;;28.00;34.84;101623.41;4974801;28;20106;-71
2022/06/18 05:51:23;;;;;;;59.90;56.70;;;;;;;27.99;34.58;101624.53;4957754;28;20130;-70
2022/06/18 05:53:49;;;;;;;57.95;54.58;;;;;;;27.98;34.69;101620.16;4975617;28;20452;-71
2022/06/18 05:56:15;;;;;;;58.97;55.92;;;;;;;27.99;35.28;101618.19;4975679;28;20035;-70
2022/06/18 05:58:40;;;;;;;57.47;54.00;;;;;;;27.98;34.87;101611.81;4975585;28;20038;-70
2022/06/18 06:01:06;;;;;;;57.05;53.85;;;;;;;27.97;34.82;101615.75;4974705;28;20027;-70
2022/06/18 06:03:31;;;;;;;57.42;54.28;;;;;;;27.96;34.93;101608.56;4975267;28;20065;-71
2022/06/18 06:05:57;;;;;;;59.63;56.63;;;;;;;27.96;35.18;101596.66;4975303;28;20443;-70
2022/06/18 06:08:22;;;;;;;56.95;54.05;;;;;;;27.95;35.44;101600.59;4974887;28;20062;-70
2022/06/18 06:13:32;;;;;;;58.85;55.67;;;;;;;27.95;35.39;101604.19;4975200;28;20089;-72
2022/06/18 06:15:58;;;;;;;59.13;55.42;;;;;;;27.95;34.86;101600.59;4974934;28;20042;-72
2022/06/18 06:18:24;;;;;;;57.78;54.78;;;;;;;27.96;35.12;101602.22;4975014;28;20460;-72
2022/06/18 06:20:53;;;;;;;59.75;56.58;;;;;;;27.96;35.23;101594.69;4974912;28;20034;-72
2022/06/18 06:23:19;;;;;;;59.45;56.22;;;;;;;27.97;35.34;101601.03;4974192;28;20341;-72
2022/06/18 06:25:46;;;;;;;58.42;55.25;;;;;;;27.97;35.18;101601.03;4974540;28;20035;-72
2022/06/18 06:28:22;;;;;;;56.20;53.13;;;;;;;27.98;35.19;101597.94;4974907;28;20030;-70
2022/06/18 06:30:49;;;;;;;61.25;58.03;;;;;;;27.98;35.56;101597.13;4975043;28;20070;-71
2022/06/18 06:33:14;;;;;;;59.08;55.80;;;;;;;27.99;35.67;101594.00;4975213;28;20039;-72
2022/06/18 06:35:42;;;;;;;57.67;54.58;;;;;;;28.00;35.31;101592.88;4974982;28;20045;-72
2022/06/18 06:38:08;;;;;;;;;;;;;;;28.01;35.52;101602.00;4974943;28;20141;-68
2022/06/18 06:40:34;;;;;;;56.10;52.95;;;;;;;28.02;35.53;101596.13;4974945;28;20362;-68
2022/06/18 06:43:00;;;;;;;55.47;52.58;;;;;;;28.04;35.12;101601.31;4974549;28;20058;-67
2022/06/18 06:45:29;;;;;;;59.50;56.42;;;;;;;28.05;35.01;101598.22;4974531;28;20038;-69
2022/06/18 06:47:55;;;;;;;58.10;54.90;;;;;;;28.07;35.12;101597.84;4974896;28;20110;-69
2022/06/18 06:50:22;;;;;;;61.20;57.95;;;;;;;28.09;35.11;101603.06;4974821;28;20050;-70
2022/06/18 06:52:49;;;;;;;56.47;53.58;;;;;;;28.11;35.45;101603.53;4974731;28;20106;-69
2022/06/18 06:58:14;;;;;;;58.60;55.17;;;;;;;28.14;35.52;101602.84;4975075;28;20073;-69
2022/06/18 07:00:48;;;;;;;59.08;56.00;;;;;;;28.16;35.68;101601.38;4973325;28;20118;-69
2022/06/18 07:03:17;;;;;;;62.33;58.47;;;;;;;28.19;36.06;101603.44;4974291;28;20053;-67
2022/06/18 07:05:43;;;;;;;58.95;55.53;;;;;;;28.20;35.58;101605.09;4957098;28;20365;-73
2022/06/18 07:08:09;;;;;;;58.08;55.17;;;;;;;28.22;35.34;101599.16;4975151;28;20030;-70
2022/06/18 07:10:34;;;;;;;59.58;56.10;;;;;;;28.25;35.42;101606.84;4974379;28;20042;-67
2022/06/18 07:13:00;;;;;;;61.17;57.80;;;;;;;28.27;35.48;101610.06;4974415;28;20039;-68
2022/06/18 07:15:25;;;;;;;64.07;60.10;;;;;;;28.30;35.90;101608.56;4974902;28;20433;-72
2022/06/18 07:17:51;;;;;;;57.60;54.65;;;;;;;28.32;36.01;101611.81;4974353;28;20604;-70
2022/06/18 07:20:18;;;;;;;62.15;58.85;;;;;;;28.34;36.03;101615.88;4974294;28;20070;-67
2022/06/18 07:22:44;;;;;;;62.92;59.42;;;;;;;28.37;35.63;101604.06;4957002;28;20464;-67
2022/06/18 07:25:11;;;;;;;61.05;57.15;;;;;;;28.39;35.83;101596.22;4974874;28;20059;-69
2022/06/18 07:27:37;;;;;;;62.58;59.00;;;;;;;28.42;35.82;101601.09;4973979;28;20117;-69
2022/06/18 07:30:05;;;;;;;63.72;60.22;;;;;;;28.44;35.80;101603.53;4974839;28;20038;-70
2022/06/18 07:32:31;;;;;;;62.83;59.53;;;;;;;28.47;35.92;101600.88;4956836;28;20045;-71
2022/06/18 07:34:57;;;;;;;60.15;57.15;;;;;;;28.50;36.12;101595.81;4956969;28;20085;-69
2022/06/18 07:37:23;;;;;;;63.58;60.00;;;;;;;28.53;36.18;101597.91;4957678;28;20114;-71
2022/06/18 07:39:49;;;;;;;65.88;61.55;;;;;;;28.56;36.39;101605.56;4977792;28;20035;-68
2022/06/18 07:42:17;;;;;;;62.08;58.75;;;;;;;28.60;36.49;101596.19;4960409;28;20387;-71
2022/06/18 07:44:43;;;;;;;62.28;58.97;;;;;;;28.64;36.13;101599.88;4977445;28;20030;-69
2022/06/18 07:47:14;;;;;;;61.47;58.08;;;;;;;28.67;36.31;101604.75;4978178;28;20039;-71
2022/06/18 07:49:39;;;;;;;61.53;58.28;;;;;;;28.71;36.46;101601.31;4977410;28;20086;-70
2022/06/18 07:52:04;;;;;;;62.78;59.47;;;;;;;28.73;36.33;101599.78;4960305;28;20031;-69
2022/06/18 07:54:30;;;;;;;65.05;61.63;;;;;;;28.77;36.52;101599.91;4977982;28;20123;-70
2022/06/18 07:56:55;;;;;;;60.67;57.45;;;;;;;28.81;36.11;101600.84;4977238;28;20086;-71
2022/06/18 07:59:23;;;;;;;60.95;57.30;;;;;;;28.84;36.43;101595.38;4960403;28;20081;-69
2022/06/18 08:01:48;;;;;;;62.90;59.33;;;;;;;28.88;36.16;101596.34;4944972;28;20058;-71
2022/06/18 08:04:14;;;;;;;60.70;57.17;;;;;;;28.92;36.61;101586.13;4976208;28;20034;-69
2022/06/18 08:06:40;;;;;;;62.92;59.38;;;;;;;28.96;36.73;101582.66;4976532;28;20486;-70
2022/06/18 08:09:06;;;;;;;64.68;61.25;;;;;;;29.00;36.86;101581.59;4977816;28;20444;-72
2022/06/18 08:11:31;;;;;;;66.53;62.33;;;;;;;29.04;36.91;101582.53;4943952;28;20035;-69
2022/06/18 08:13:58;;;;;;;63.97;60.60;;;;;;;29.09;36.38;101578.75;4977232;28;20102;-69
2022/06/18 08:16:23;;;;;;;68.15;64.03;;;;;;;29.14;36.75;101574.91;4977080;28;20042;-71
2022/06/18 08:18:49;;;;;;;62.88;59.42;;;;;;;29.18;36.98;101568.31;4977396;28;20038;-73
2022/06/18 08:21:16;;;;;;;64.97;61.50;;;;;;;29.22;36.46;101560.88;4960156;28;20035;-69
2022/06/18 08:23:42;;;;;;;64.30;60.45;;;;;;;29.26;36.66;101564.56;4976745;28;20037;-70
2022/06/18 08:26:08;;;;;;;70.15;66.40;;;;;;;29.31;36.77;101569.91;4976739;28;20403;-70
2022/06/18 08:28:36;;;;;;;67.25;63.63;;;;;;;29.35;36.68;101564.44;4977401;28;20035;-70
2022/06/18 08:31:03;;;;;;;64.03;60.38;;;;;;;29.41;36.75;101562.22;4976921;28;20505;-69
2022/06/18 08:33:29;;;;;;;66.18;62.40;;;;;;;29.46;36.77;101570.31;4959227;28;20054;-68
2022/06/18 08:35:57;;;;;;;64.30;61.05;;;;;;;29.52;36.72;101571.72;4976759;28;20468;-68
2022/06/18 08:38:23;;;;;;;65.70;62.50;;;;;;;29.57;36.79;101570.66;4976767;28;20035;-68
2022/06/18 08:41:32;;;;;;;65.00;61.25;;;;;;;29.64;36.50;101571.69;4977506;28;20035;-70
2022/06/18 08:44:35;;;;;;;64.20;60.83;;;;;;;29.68;36.86;101569.81;4961620;28;20043;-73
2022/06/18 08:47:21;;;;;;;62.95;59.45;;;;;;;29.75;36.75;101561.66;4976251;28;20498;-68
2022/06/18 08:49:55;;;;;;;66.20;62.38;;;;;;;29.81;36.54;101573.41;4975944;28;20058;-69
2022/06/18 08:52:36;;;;;;;66.22;62.63;;;;;;;29.87;36.48;101573.94;4976835;28;20038;-72
2022/06/18 08:55:31;;;;;;;68.90;65.25;;;;;;;29.95;36.62;101575.75;4976738;28;20185;-68
2022/06/18 08:58:13;;;;;;;70.88;66.60;;;;;;;30.01;36.75;101573.53;4976265;28;20030;-68
2022/06/18 09:01:00;;;;;;;69.13;65.63;;;;;;;30.09;36.76;101578.13;4976312;28;20022;-71
2022/06/18 09:03:31;;;;;;;67.75;64.07;;;;;;;30.15;36.53;101571.13;4976103;28;20480;-68
2022/06/18 09:06:11;;;;;;;71.32;67.55;;;;;;;30.22;36.63;101576.91;4976497;28;20035;-69
2022/06/18 09:08:42;;;;;;;69.82;65.93;;;;;;;30.28;36.62;101578.28;4976397;28;20086;-70
2022/06/18 09:11:25;;;;;;;70.13;66.38;;;;;;;30.34;36.45;101578.81;4976245;28;20519;-68
2022/06/18 09:14:16;;;;;;;70.85;67.03;;;;;;;30.44;36.57;101585.84;4975098;28;20034;-67
2022/06/18 09:16:59;;;;;;;72.85;68.72;;;;;;;30.50;36.30;101573.28;4958866;28;20037;-69
2022/06/18 09:19:28;;;;;;;69.45;65.70;;;;;;;30.55;36.12;101573.81;4976306;28;20110;-72
2022/06/18 09:21:58;;;;;;;74.60;70.45;;;;;;;30.62;36.54;101576.00;4975921;28;20467;-68
2022/06/18 09:24:33;;;;;;;72.72;68.60;;;;;;;30.70;36.29;101571.41;4975607;28;20102;-68
2022/06/18 09:27:14;;;;;;;71.53;67.80;;;;;;;30.77;36.12;101569.59;4975633;28;20097;-68
2022/06/18 09:29:48;;;;;;;71.47;67.20;;;;;;;30.83;36.59;101573.75;4975478;28;20031;-71
2022/06/18 09:32:52;;;;;;;70.28;66.45;;;;;;;30.93;36.44;101568.78;4975740;28;20031;-70
2022/06/18 09:35:34;;;;;;;76.45;72.75;;;;;;;30.99;36.26;101562.56;4945985;28;20075;-68
2022/06/18 09:38:07;;;;;;;74.57;70.03;;;;;;;31.08;36.15;101562.38;4976028;28;20035;-68
2022/06/18 09:40:34;;;;;;;71.72;67.82;;;;;;;31.14;36.17;101558.13;4975624;28;20049;-67
2022/06/18 09:43:15;;;;;;;72.65;69.05;;;;;;;31.23;36.04;101550.34;4975213;28;20037;-68
2022/06/18 09:45:54;;;;;;;76.78;72.38;;;;;;;31.30;36.33;101546.94;4974172;28;20066;-67
2022/06/18 09:48:19;;;;;;;74.47;70.50;;;;;;;31.38;36.20;101548.72;4975560;28;20039;-69
2022/06/18 09:50:51;;;;;;;75.68;71.13;;;;;;;31.44;36.29;101547.25;4975289;28;20423;-66
2022/06/18 09:53:28;;;;;;;70.97;67.32;;;;;;;31.53;36.09;101551.81;4974108;28;20034;-65
2022/06/18 09:56:14;;;;;;;71.30;67.60;;;;;;;31.60;36.16;101547.19;4975634;28;20027;-67
2022/06/18 09:58:54;;;;;;;77.88;73.95;;;;;;;31.68;36.01;101548.16;4958154;28;20027;-68
2022/06/18 10:01:27;;;;;;;78.68;73.57;;;;;;;31.75;35.65;101537.09;4974207;28;20031;-68
2022/06/18 10:06:57;;;;;;;76.88;72.97;;;;;;;31.90;35.76;101550.19;4975156;28;20462;-67
2022/06/18 10:09:45;;;;;;;75.80;71.82;;;;;;;31.99;35.74;101544.38;4975438;28;20034;-67
2022/06/18 10:12:36;;;;;;;77.50;73.35;;;;;;;32.09;35.40;101545.78;4975201;28;20053;-68
2022/06/18 10:15:06;;;;;;;77.88;73.45;;;;;;;32.15;35.63;101538.69;4975268;28;20526;-67
2022/06/18 10:17:53;;;;;;;76.93;73.05;;;;;;;32.23;35.76;101534.88;4974762;28;20118;-67
2022/06/18 10:20:19;;;;;;;;;;;;;;;32.29;35.68;101532.56;4975415;28;20078;-67
2022/06/18 10:23:09;;;;;;;78.05;73.95;;;;;;;32.38;35.58;101530.31;4974795;28;19914;-68
2022/06/18 10:25:44;;;;;;;76.13;72.13;;;;;;;32.45;35.35;101521.25;4974797;28;20077;-70
2022/06/18 10:28:23;;;;;;;79.22;75.00;;;;;;;32.53;35.27;101528.59;4974724;28;20031;-69
2022/06/18 10:30:48;;;;;;;80.68;76.47;;;;;;;32.62;35.16;101528.34;4975001;28;20035;-67
2022/06/18 10:33:28;;;;;;;81.32;76.97;;;;;;;32.70;35.12;101530.88;4974465;28;20038;-71
2022/06/18 10:35:54;;;;;;;77.15;72.70;;;;;;;32.77;35.33;101524.59;4974736;28;20075;-68
2022/06/18 10:38:42;;;;;;;83.40;79.13;;;;;;;32.86;34.92;101522.34;4974916;28;20065;-67
2022/06/18 10:41:25;;;;;;;81.68;77.20;;;;;;;32.94;34.97;101512.06;4973366;28;20027;-68
2022/06/18 10:44:13;;;;;;;82.07;76.93;;;;;;;33.03;34.79;101511.78;4974232;28;20479;-67
2022/06/18 10:46:39;;;;;;;83.55;78.78;;;;;;;33.10;34.47;101509.09;4957344;28;20034;-68
2022/06/18 10:49:06;;;;;;;81.10;76.57;;;;;;;33.17;34.57;101506.41;4974455;28;20046;-67
2022/06/18 10:51:44;;;;;;;82.67;78.40;;;;;;;33.24;34.50;101503.69;4974763;28;20035;-66
2022/06/18 10:54:10;;;;;;;80.78;76.97;;;;;;;33.31;34.78;101508.56;4974889;28;20039;-66
2022/06/18 10:56:53;;;;;;;81.03;77.13;;;;;;;33.40;34.94;101507.09;4974595;28;20034;-66
2022/06/18 10:59:48;;;;;;;83.93;78.97;;;;;;;33.49;34.75;101501.22;4974650;28;20468;-66
2022/06/18 11:02:18;;;;;;;84.00;79.50;;;;;;;33.54;34.23;101506.47;4944381;28;20055;-67
2022/06/18 11:04:56;;;;;;;83.75;79.55;;;;;;;33.64;34.21;101504.19;4974744;28;20121;-66
2022/06/18 11:07:26;;;;;;;86.32;81.65;;;;;;;33.70;33.69;101492.25;4974651;28;20121;-66
2022/06/18 11:10:34;;;;;;;87.43;82.72;;;;;;;33.79;33.56;101484.38;4974430;28;20029;-74
2022/06/18 11:13:01;;;;;;;84.82;80.45;;;;;;;33.84;33.52;101471.97;4976021;28;20046;-67
2022/06/18 11:15:32;;;;;;;86.18;81.93;;;;;;;33.91;33.82;101474.84;4978926;28;20038;-66
2022/06/18 11:17:57;;;;;;;86.32;81.90;;;;;;;33.99;33.63;101470.13;4978162;28;20042;-67
2022/06/18 11:20:29;;;;;;;87.53;82.38;;;;;;;34.06;33.00;101461.78;4978359;28;20030;-66
2022/06/18 11:23:01;;;;;;;86.07;81.68;;;;;;;34.13;33.69;101461.06;4978864;28;20030;-67
2022/06/18 11:25:36;;;;;;;86.88;81.47;;;;;;;34.20;33.37;101447.91;4978142;28;20098;-66
2022/06/18 11:28:07;;;;;;;92.47;87.93;;;;;;;34.29;33.56;101455.19;4978031;28;20539;-67
2022/06/18 11:30:44;;;;;;;86.32;81.80;;;;;;;34.36;33.95;101455.25;4978040;28;20030;-66
2022/06/18 11:33:36;;;;;;;86.38;81.78;;;;;;;34.43;33.35;101447.69;4977869;28;20030;-67
2022/06/18 11:36:11;;;;;;;83.40;78.60;;;;;;;34.50;33.32;101448.91;4977515;28;20054;-68
2022/06/18 11:38:38;;;;;;;85.60;81.57;;;;;;;34.56;33.22;101455.78;4977862;28;20082;-69
2022/06/18 11:41:12;;;;;;;88.60;84.18;;;;;;;34.63;33.66;101445.44;4977694;28;20038;-66